createdAt,value
2022-08-03T00:00:03.159Z,0
2022-08-03T00:05:03.368Z,0
2022-08-03T00:10:03.156Z,0
2022-08-03T00:15:10.439Z,0
2022-08-03T00:20:03.213Z,0
2022-08-03T00:25:03.365Z,0
2022-08-03T00:30:03.188Z,0
2022-08-03T00:35:07.990Z,0
2022-08-03T00:40:03.562Z,0
2022-08-03T00:45:03.314Z,0
2022-08-03T00:50:04.828Z,0
2022-08-03T00:55:03.179Z,0
2022-08-03T01:00:03.335Z,0
2022-08-03T01:05:03.349Z,0
2022-08-03T01:10:03.446Z,0
2022-08-03T01:15:03.219Z,0
2022-08-03T01:20:03.331Z,0
2022-08-03T01:25:03.396Z,0
2022-08-03T01:30:03.674Z,0
2022-08-03T01:35:03.243Z,0
2022-08-03T01:40:03.239Z,0
2022-08-03T01:45:03.224Z,0
2022-08-03T01:50:05.212Z,0
2022-08-03T01:55:03.262Z,0
2022-08-03T02:00:00.965Z,0
2022-08-03T02:05:01.003Z,0
2022-08-03T02:10:00.912Z,0
2022-08-03T02:15:01.127Z,0
2022-08-03T02:20:02.450Z,0
2022-08-03T02:25:01.214Z,0
2022-08-03T02:30:00.942Z,0
2022-08-03T02:35:00.932Z,0
2022-08-03T02:40:00.975Z,0
2022-08-03T02:45:01.062Z,0
2022-08-03T02:50:05.218Z,0
2022-08-03T02:55:01.015Z,0
2022-08-03T03:00:01.026Z,0
2022-08-03T03:05:51.873Z,0
2022-08-03T03:10:01.235Z,0
2022-08-03T03:15:01.003Z,0
2022-08-03T03:20:05.089Z,0
2022-08-03T03:25:01.012Z,0
2022-08-03T03:30:01.129Z,0
2022-08-03T03:35:01.031Z,0
2022-08-03T03:40:01.055Z,0.31073015873015875
2022-08-03T03:45:00.968Z,0.3418201058201058
2022-08-03T03:50:06.215Z,0.4160634920634921
2022-08-03T03:55:01.732Z,0.6076190476190476
2022-08-03T04:00:01.059Z,0.6731640211640212
2022-08-03T04:05:01.082Z,0.786920634920635
2022-08-03T04:10:01.022Z,0.6437460317460317
2022-08-03T04:15:01.178Z,0.592931216931217
2022-08-03T04:20:02.587Z,1.8650370370370373
2022-08-03T04:25:01.076Z,2.2604126984126984
2022-08-03T04:30:01.080Z,2.325809523809524
2022-08-03T04:35:01.180Z,2.631068783068783
2022-08-03T04:40:00.997Z,2.001925925925926
2022-08-03T04:45:01.855Z,1.7478835978835978
2022-08-03T04:50:11.991Z,2.584010582010582
2022-08-03T04:55:01.093Z,3.0709206349206353
2022-08-03T05:00:03.553Z,3.382031746031746
2022-08-03T05:05:01.094Z,3.66373544973545
2022-08-03T05:10:01.890Z,6.550920634920635
2022-08-03T05:15:01.096Z,8.424888888888889
2022-08-03T05:20:02.246Z,5.483407407407408
2022-08-03T05:25:02.163Z,5.501396825396826
2022-08-03T05:30:26.611Z,8.150179894179894
2022-08-03T05:35:01.406Z,8.197185185185186
2022-08-03T05:40:01.261Z,11.32631746031746
2022-08-03T05:45:01.402Z,8.927301587301589
2022-08-03T05:50:15.820Z,7.752148148148148
2022-08-03T05:55:01.071Z,9.596391534391536
2022-08-03T06:00:01.089Z,9.872867724867724
2022-08-03T06:05:01.243Z,8.802539682539683
2022-08-03T06:10:34.639Z,10.52615873015873
2022-08-03T06:15:01.086Z,8.97942857142857
2022-08-03T06:20:13.039Z,18.148962962962965
2022-08-03T06:25:04.301Z,17.277343915343916
2022-08-03T06:30:01.385Z,15.063449735449735
2022-08-03T06:35:06.167Z,14.316201058201058
2022-08-03T06:40:01.127Z,20.438550264550265
2022-08-03T06:45:01.173Z,22.040814814814816
2022-08-03T06:50:13.151Z,24.098010582010584
2022-08-03T06:55:01.329Z,26.018275132275132
2022-08-03T07:00:11.794Z,27.52541798941799
2022-08-03T07:05:01.170Z,29.847238095238094
2022-08-03T07:10:02.337Z,32.382507936507935
2022-08-03T07:15:02.767Z,38.787693121693124
2022-08-03T07:20:08.049Z,22.584063492063493
2022-08-03T07:25:01.232Z,37.679365079365084
2022-08-03T07:30:01.291Z,40.97744973544974
2022-08-03T07:35:01.815Z,35.04968253968254
2022-08-03T07:40:01.218Z,41.06373544973545
2022-08-03T07:45:02.177Z,42.54265608465608
2022-08-03T07:50:15.819Z,44.08214814814815
2022-08-03T07:55:01.346Z,46.21572486772487
2022-08-03T08:00:02.068Z,48.996423280423286
2022-08-03T08:05:05.434Z,49.12986243386243
2022-08-03T08:10:01.251Z,51.299417989418
2022-08-03T08:15:01.559Z,53.2502962962963
2022-08-03T08:20:12.583Z,47.918433862433865
2022-08-03T08:25:01.705Z,47.50697354497354
2022-08-03T08:30:08.759Z,42.7818835978836
2022-08-03T08:35:01.267Z,65.91334391534392
2022-08-03T08:40:01.375Z,59.8464126984127
2022-08-03T08:45:01.216Z,49.31007407407407
2022-08-03T08:50:09.992Z,53.2901798941799
2022-08-03T08:55:01.378Z,27.442634920634923
2022-08-03T09:00:01.431Z,18.297597883597884
2022-08-03T09:05:05.382Z,16.895248677248677
2022-08-03T09:10:05.987Z,19.02074074074074
2022-08-03T09:15:16.289Z,23.989957671957672
2022-08-03T09:20:07.405Z,22.532486772486774
2022-08-03T09:25:23.142Z,23.098772486772486
2022-08-03T09:30:01.307Z,24.35185185185185
2022-08-03T09:35:01.429Z,24.2109417989418
2022-08-03T09:40:01.267Z,33.623428571428576
2022-08-03T09:45:01.450Z,26.4989417989418
2022-08-03T09:50:04.867Z,30.331026455026453
2022-08-03T09:55:01.380Z,43.626222222222225
2022-08-03T10:00:06.253Z,40.721650793650795
2022-08-03T10:05:01.322Z,43.27807407407408
2022-08-03T10:10:28.656Z,55.361576719576725
2022-08-03T10:15:01.599Z,61.347291005291005
2022-08-03T10:20:02.210Z,58.340359788359784
2022-08-03T10:25:01.407Z,45.195142857142855
2022-08-03T10:30:01.346Z,63.80474074074074
2022-08-03T10:35:04.094Z,68.66728042328042
2022-08-03T10:40:01.505Z,79.86734391534391
2022-08-03T10:45:01.432Z,61.86434920634921
2022-08-03T10:50:20.996Z,80.5134074074074
2022-08-03T10:55:03.068Z,80.2018201058201
2022-08-03T11:00:01.521Z,80.23100529100529
2022-08-03T11:05:01.357Z,75.72896296296297
2022-08-03T11:10:01.358Z,78.60031746031747
2022-08-03T11:15:01.461Z,79.16204232804233
2022-08-03T11:20:13.009Z,78.30845502645502
2022-08-03T11:25:01.479Z,78.13250793650793
2022-08-03T11:30:01.520Z,77.65533333333333
2022-08-03T11:35:01.453Z,77.39567195767196
2022-08-03T11:40:02.655Z,78.00259259259259
2022-08-03T11:45:01.400Z,78.88068783068783
2022-08-03T11:50:06.929Z,80.38123809523809
2022-08-03T11:55:01.601Z,81.56257142857143
2022-08-03T12:00:01.554Z,78.77554497354498
2022-08-03T12:05:01.547Z,77.09385185185185
2022-08-03T12:10:01.566Z,77.02702645502646
2022-08-03T12:15:01.590Z,77.18466666666667
2022-08-03T12:20:14.090Z,76.95820105820106
2022-08-03T12:25:01.720Z,76.88603174603175
2022-08-03T12:30:01.556Z,76.81441269841271
2022-08-03T12:35:02.170Z,76.62903703703704
2022-08-03T12:40:04.178Z,76.4934074074074
2022-08-03T12:45:01.648Z,76.36853968253968
2022-08-03T12:50:11.979Z,76.23685714285713
2022-08-03T12:55:01.528Z,75.87943915343915
2022-08-03T13:00:01.579Z,75.65201058201058
2022-08-03T13:05:06.707Z,75.62319576719577
2022-08-03T13:10:04.970Z,73.84502645502647
2022-08-03T13:15:06.475Z,74.17777777777778
2022-08-03T13:20:10.846Z,73.13707936507936
2022-08-03T13:25:01.686Z,72.64203174603175
2022-08-03T13:30:01.638Z,71.5846455026455
2022-08-03T13:35:01.576Z,67.0848253968254
2022-08-03T13:40:02.813Z,57.8753544973545
2022-08-03T13:45:01.497Z,62.86496296296297
2022-08-03T13:50:09.201Z,69.80993650793651
2022-08-03T13:55:06.434Z,69.17112169312169
2022-08-03T14:00:01.768Z,68.54046560846562
2022-08-03T14:05:01.538Z,64.37075132275132
2022-08-03T14:10:01.670Z,59.93857142857143
2022-08-03T14:15:06.467Z,63.87368253968254
2022-08-03T14:20:03.538Z,64.24845502645503
2022-08-03T14:25:01.725Z,62.53465608465609
2022-08-03T14:30:01.719Z,60.34371428571428
2022-08-03T14:35:01.901Z,52.22777777777778
2022-08-03T14:40:01.833Z,62.506941798941796
2022-08-03T14:45:05.945Z,49.258920634920635
2022-08-03T14:50:35.075Z,35.04748148148148
2022-08-03T14:55:01.534Z,49.436126984126986
2022-08-03T15:00:01.540Z,54.20119576719576
2022-08-03T15:05:01.646Z,36.015587301587296
2022-08-03T15:10:02.344Z,28.523227513227518
2022-08-03T15:15:01.631Z,23.44741798941799
2022-08-03T15:20:19.626Z,28.80686772486773
2022-08-03T15:25:01.690Z,28.545661375661375
2022-08-03T15:30:06.593Z,20.874243386243386
2022-08-03T15:35:01.587Z,36.65900529100529
2022-08-03T15:40:01.710Z,39.828984126984125
2022-08-03T15:45:01.779Z,42.61583068783069
2022-08-03T15:50:07.888Z,19.770074074074074
2022-08-03T15:55:01.602Z,19.009873015873016
2022-08-03T16:00:01.775Z,25.07426455026455
2022-08-03T16:05:01.885Z,26.275185185185183
2022-08-03T16:10:01.623Z,21.393735449735452
2022-08-03T16:15:01.615Z,18.673650793650793
2022-08-03T16:20:10.693Z,13.977873015873016
2022-08-03T16:25:01.706Z,14.233544973544973
2022-08-03T16:30:01.690Z,17.817492063492065
2022-08-03T16:35:01.678Z,25.468560846560845
2022-08-03T16:40:01.789Z,22.23009523809524
2022-08-03T16:45:01.618Z,18.05920634920635
2022-08-03T16:50:15.699Z,11.13873015873016
2022-08-03T16:55:01.727Z,11.456772486772486
2022-08-03T17:00:01.662Z,11.479100529100531
2022-08-03T17:05:01.774Z,10.948423280423281
2022-08-03T17:10:01.758Z,13.148878306878306
2022-08-03T17:15:01.876Z,14.489417989417989
2022-08-03T17:20:21.025Z,12.150412698412698
2022-08-03T17:25:02.028Z,10.382677248677249
2022-08-03T17:30:01.754Z,8.770148148148147
2022-08-03T17:35:01.819Z,7.520190476190476
2022-08-03T17:40:03.715Z,6.728677248677249
2022-08-03T17:45:03.675Z,5.35373544973545
2022-08-03T17:50:09.464Z,4.642952380952381
2022-08-03T18:00:01.776Z,4.3770264550264555
2022-08-03T18:05:01.999Z,4.03962962962963
2022-08-03T18:10:02.955Z,3.53047619047619
2022-08-03T18:15:07.632Z,3.170179894179894
2022-08-03T18:20:32.534Z,2.9398730158730157
2022-08-03T18:25:07.683Z,2.430941798941799
2022-08-03T18:30:01.960Z,1.959915343915344
2022-08-03T18:35:01.707Z,1.5414285714285714
2022-08-03T18:40:07.366Z,1.3802539682539683
2022-08-03T18:45:14.675Z,1.1855343915343917
2022-08-03T18:50:11.738Z,0.8696084656084655
2022-08-03T18:55:04.575Z,0.469989417989418
2022-08-03T19:00:02.264Z,0.19118518518518518
2022-08-03T19:05:02.113Z,0.3038941798941799
2022-08-03T19:10:03.613Z,0.1998730158730159
2022-08-03T19:15:03.025Z,0
2022-08-03T19:20:15.782Z,0
2022-08-03T19:25:06.983Z,0
2022-08-03T19:30:04.039Z,0
2022-08-03T19:35:01.809Z,0
2022-08-03T19:40:01.892Z,0
2022-08-03T19:45:01.923Z,0
2022-08-03T19:50:32.814Z,0
2022-08-03T19:55:01.787Z,0
2022-08-03T20:00:03.283Z,0
2022-08-03T20:05:02.060Z,0
2022-08-03T20:10:02.081Z,0
2022-08-03T20:15:01.851Z,0
2022-08-03T20:20:07.025Z,0
2022-08-03T20:25:01.941Z,0
2022-08-03T20:30:05.549Z,0
2022-08-03T20:35:02.197Z,0
2022-08-03T20:40:06.809Z,0
2022-08-03T20:45:04.296Z,0
2022-08-03T20:50:11.447Z,0
2022-08-03T20:55:02.126Z,0
2022-08-03T21:00:01.828Z,0
2022-08-03T21:05:03.141Z,0
2022-08-03T21:10:03.132Z,0
2022-08-03T21:12:59.928Z,4.5708042328042335
2022-08-03T21:15:01.933Z,0
2022-08-03T21:20:04.065Z,0
2022-08-03T21:25:01.954Z,0
2022-08-03T21:30:02.073Z,0
2022-08-03T21:35:01.876Z,0
2022-08-03T21:40:01.970Z,0
2022-08-03T21:45:01.893Z,0
2022-08-03T21:50:09.355Z,0
2022-08-03T21:55:02.001Z,0
2022-08-03T22:00:02.065Z,0
2022-08-03T22:05:04.934Z,0
2022-08-03T22:10:02.006Z,0
2022-08-03T22:15:02.204Z,0
2022-08-03T22:20:02.377Z,0
2022-08-03T22:25:01.920Z,0
2022-08-03T22:30:02.057Z,0
2022-08-03T22:35:02.146Z,0
2022-08-03T22:40:01.903Z,0
2022-08-03T22:45:01.901Z,0
2022-08-03T22:50:30.913Z,0
2022-08-03T22:55:02.145Z,0
2022-08-03T23:00:01.963Z,0
2022-08-03T23:05:02.105Z,0
2022-08-03T23:10:01.949Z,0
2022-08-03T23:15:02.361Z,0
2022-08-03T23:20:03.239Z,0
2022-08-03T23:25:02.192Z,0
2022-08-03T23:30:01.976Z,0
2022-08-03T23:35:02.049Z,0
2022-08-03T23:40:02.254Z,0
2022-08-03T23:45:05.885Z,0
2022-08-03T23:50:07.952Z,0
2022-08-03T23:55:02.144Z,0
